Time;durP1;ratioP1;P1;durP2;ratioP2;P2;SDS_P1;SDS_P2;PMS_P1;PMS_P2;Temp;Humidity;BMP_temperature;BMP_pressure;BME280_temperature;BME280_humidity;BME280_pressure;Samples;Min_cycle;Max_cycle;Signal;HPM_P1;HPM_P2
2022/06/22 00:00:30;;;;;;;13.65;12.13;;;18.40;99.90;;;18.85;69.01;101324.78;5116065;28;20040;-60
2022/06/22 00:02:59;;;;;;;10.88;9.85;;;18.30;99.90;;;18.49;69.77;101318.72;5116509;28;20043;-60
2022/06/22 00:05:34;;;;;;;13.18;10.18;;;18.00;99.90;;;18.25;70.76;101315.84;5116268;28;20035;-60
2022/06/22 00:08:07;;;;;;;17.45;11.65;;;17.80;99.90;;;18.07;71.89;101302.97;5116041;28;20105;-60
2022/06/22 00:10:41;;;;;;;18.30;14.77;;;17.60;99.90;;;18.09;72.45;101320.75;5115974;28;20525;-60
2022/06/22 00:13:18;;;;;;;22.40;16.25;;;17.60;99.90;;;18.16;72.82;101308.94;5116092;28;20151;-60
2022/06/22 00:15:51;;;;;;;18.88;13.95;;;17.60;99.90;;;18.21;72.92;101323.09;5115774;28;20118;-60
2022/06/22 00:18:34;;;;;;;14.98;13.57;;;17.60;99.90;;;18.22;72.95;101306.09;5116028;28;20043;-60
2022/06/22 00:21:17;;;;;;;18.25;15.80;;;17.70;99.90;;;18.30;72.59;101301.41;5115986;28;20048;-60
2022/06/22 00:23:51;;;;;;;17.88;14.57;;;17.80;99.90;;;18.21;72.70;101306.16;5115563;28;20044;-60
2022/06/22 00:26:31;;;;;;;17.48;14.82;;;17.80;99.90;;;18.03;72.64;101276.31;5115624;28;20097;-60
2022/06/22 00:29:19;;;;;;;;;;;17.70;99.90;;;18.12;72.46;101296.56;5115993;28;20043;-60
2022/06/22 00:32:16;;;;;;;15.90;14.13;;;17.80;99.90;;;18.17;72.25;101310.72;5115371;28;19920;-60
2022/06/22 00:34:45;;;;;;;19.45;14.80;;;17.70;99.90;;;18.15;72.48;101300.97;5115277;28;20130;-60
2022/06/22 00:37:18;;;;;;;19.33;16.05;;;17.70;99.90;;;18.14;72.24;101293.88;5115335;28;20131;-60
2022/06/22 00:39:50;;;;;;;18.05;14.15;;;17.60;99.90;;;18.24;71.86;101293.53;5097190;28;20104;-60
2022/06/22 00:42:30;;;;;;;22.23;15.15;;;17.80;99.90;;;18.30;71.96;101297.84;5115347;28;20130;-60
2022/06/22 00:45:05;;;;;;;22.27;14.43;;;17.80;99.90;;;18.30;71.83;101301.41;5115183;28;20056;-60
2022/06/22 00:47:37;;;;;;;19.33;14.50;;;17.90;99.90;;;18.54;71.47;101299.84;5114929;28;20078;-60
2022/06/22 00:50:15;;;;;;;18.83;14.32;;;18.00;99.90;;;18.35;71.75;101288.75;5097063;28;20457;-60
2022/06/22 00:52:48;;;;;;;19.98;14.18;;;18.00;99.90;;;18.21;71.74;101261.50;5115658;28;20039;-60
2022/06/22 00:55:25;;;;;;;24.45;14.98;;;17.90;99.90;;;18.35;71.61;101280.69;5115342;28;20036;-60
2022/06/22 00:58:00;;;;;;;17.23;13.70;;;17.90;99.90;;;18.37;71.17;101289.56;5115065;28;20047;-60
2022/06/22 01:00:33;;;;;;;18.88;13.93;;;17.90;99.90;;;18.41;71.27;101280.53;5115048;28;20459;-60
2022/06/22 01:03:14;;;;;;;20.40;14.30;;;17.90;99.90;;;18.43;71.41;101278.72;5097271;28;20512;-60
2022/06/22 01:05:53;;;;;;;20.75;14.63;;;17.90;99.90;;;18.53;71.55;101272.16;5115560;28;20062;-60
2022/06/22 01:08:29;;;;;;;22.10;14.52;;;18.00;99.90;;;18.64;71.51;101280.75;5114924;28;20043;-60
2022/06/22 01:11:03;;;;;;;21.23;12.90;;;18.10;99.90;;;18.71;71.45;101276.06;5114715;28;20040;-60
2022/06/22 01:13:40;;;;;;;20.85;13.90;;;18.30;99.90;;;18.84;71.30;101283.69;5115361;28;20101;-60
2022/06/22 01:16:17;;;;;;;19.98;13.70;;;18.30;99.90;;;18.62;71.42;101268.34;5114743;28;20234;-60
2022/06/22 01:18:55;;;;;;;20.70;13.20;;;18.40;99.90;;;18.93;71.18;101278.00;5114793;28;20039;-60
2022/06/22 01:21:29;;;;;;;17.45;12.88;;;18.50;99.90;;;18.95;70.87;101285.16;5114878;28;20489;-60
2022/06/22 01:24:25;;;;;;;17.92;13.40;;;18.50;99.90;;;19.00;71.02;101289.44;5114155;28;20039;-60
2022/06/22 01:27:23;;;;;;;16.08;12.55;;;18.60;99.90;;;19.03;70.68;101288.47;5096403;28;20047;-61
2022/06/22 01:29:55;;;;;;;22.73;14.60;;;18.60;99.90;;;18.98;71.12;101290.41;5114166;28;20039;-60
2022/06/22 01:32:29;;;;;;;14.32;12.90;;;18.60;99.90;;;18.67;70.63;101299.41;5114633;28;20039;-61
2022/06/22 01:35:03;;;;;;;13.40;11.95;;;18.40;99.90;;;18.29;69.83;101269.31;5113982;28;20068;-59
2022/06/22 01:37:33;;;;;;;13.35;11.85;;;18.10;99.90;;;18.24;70.03;101293.53;5114289;28;20055;-62
2022/06/22 01:40:13;;;;;;;14.27;12.68;;;17.90;99.90;;;18.02;70.21;101301.31;5114004;28;20422;-59
2022/06/22 01:42:51;;;;;;;19.20;12.63;;;17.70;99.90;;;18.00;70.49;101313.00;5113964;28;20100;-59
2022/06/22 01:45:31;;;;;;;17.48;13.27;;;17.60;99.90;;;17.93;70.57;101300.69;5113798;28;20054;-59
2022/06/22 01:48:08;;;;;;;12.88;10.90;;;17.60;99.90;;;17.94;70.67;101315.84;5114046;28;20107;-59
2022/06/22 01:50:42;;;;;;;14.52;13.15;;;17.50;99.90;;;17.81;70.74;101322.41;5113881;28;20122;-59
2022/06/22 01:53:19;;;;;;;17.15;15.18;;;17.40;99.90;;;17.73;71.19;101330.66;5113598;28;20035;-59
2022/06/22 01:55:53;;;;;;;16.15;14.57;;;17.40;99.90;;;17.68;71.45;101334.38;5114160;28;20068;-59
2022/06/22 01:58:39;;;;;;;19.67;17.67;;;17.30;99.90;;;17.63;72.17;101318.47;5113010;28;20044;-59
2022/06/22 02:01:19;;;;;;;19.00;16.73;;;17.20;99.90;;;17.55;72.66;101314.22;5113777;28;20082;-59
2022/06/22 02:04:03;;;;;;;20.00;16.30;;;17.20;99.90;;;17.61;73.37;101308.72;5113566;28;20062;-59
2022/06/22 02:09:46;;;;;;;14.43;13.02;;;17.10;99.90;;;17.54;73.69;101320.47;5113602;28;20149;-59
2022/06/22 02:12:20;;;;;;;16.02;14.43;;;17.10;99.90;;;17.48;74.11;101308.13;5113296;28;20063;-59
2022/06/22 02:15:01;;;;;;;18.75;15.38;;;17.00;99.90;;;17.38;74.19;101311.06;5113373;28;20400;-59
2022/06/22 02:17:36;;;;;;;17.63;15.73;;;17.00;99.90;;;17.41;73.83;101308.28;5113251;28;20097;-59
2022/06/22 02:20:37;;;;;;;16.33;14.60;;;16.90;99.90;;;17.37;73.76;101288.78;5113173;28;20100;-59
2022/06/22 02:23:21;;;;;;;17.88;14.88;;;16.90;99.90;;;17.38;74.26;101279.81;5068960;28;20071;-59
2022/06/22 02:26:09;;;;;;;16.73;15.13;;;16.90;99.90;;;17.43;74.57;101279.72;5113301;28;20118;-59
2022/06/22 02:28:38;;;;;;;20.67;14.30;;;16.90;99.90;;;17.52;75.13;101280.38;5094956;28;20071;-59
2022/06/22 02:31:09;;;;;;;18.73;14.43;;;17.00;99.90;;;17.47;74.74;101276.03;5112826;28;20370;-59
2022/06/22 02:33:43;;;;;;;16.10;13.80;;;17.00;99.90;;;17.44;74.00;101287.69;5112949;28;20097;-59
2022/06/22 02:36:14;;;;;;;15.98;14.30;;;17.00;99.90;;;17.38;73.96;101281.66;5112819;28;20449;-59
2022/06/22 02:38:44;;;;;;;11.65;10.35;;;16.90;99.90;;;17.54;74.23;101264.28;5113154;28;20048;-59
2022/06/22 02:46:47;;;;;;;18.98;13.80;;;17.10;99.90;;;17.57;75.32;101243.72;5112876;28;20071;-60
2022/06/22 02:49:27;;;;;;;17.73;14.68;;;17.10;99.90;;;17.64;75.41;101247.97;5112781;28;20385;-59
2022/06/22 02:51:57;;;;;;;22.73;15.98;;;17.10;99.90;;;17.66;75.30;101246.13;5112993;28;20073;-59
2022/06/22 02:54:30;;;;;;;20.83;15.95;;;17.20;99.90;;;17.73;75.40;101238.81;5113226;28;20126;-59
2022/06/22 02:57:10;;;;;;;22.75;17.05;;;17.20;99.90;;;17.80;75.32;101240.38;5113102;28;20101;-59
2022/06/22 02:59:39;;;;;;;21.00;17.00;;;17.30;99.90;;;17.80;75.36;101237.72;5113167;28;20108;-59
2022/06/22 03:02:10;;;;;;;25.65;18.40;;;17.30;99.90;;;17.80;75.26;101235.94;5112650;28;20130;-59
2022/06/22 03:04:40;;;;;;;;;;;17.40;99.90;;;17.69;75.23;101221.09;5113308;28;20060;-59
2022/06/22 03:07:08;;;;;;;25.77;19.23;;;17.50;99.90;;;17.89;75.20;101256.19;5113079;28;19923;-59
2022/06/22 03:09:39;;;;;;;21.10;18.27;;;17.40;99.90;;;17.93;75.28;101241.78;5112384;28;20438;-59
2022/06/22 03:12:11;;;;;;;27.88;19.27;;;17.50;99.90;;;17.98;75.32;101230.03;5113040;28;20094;-59
2022/06/22 03:14:51;;;;;;;26.42;18.77;;;17.50;99.90;;;17.95;75.21;101237.28;5112503;28;20039;-59
2022/06/22 03:17:25;;;;;;;22.45;18.27;;;17.50;99.90;;;17.99;75.21;101236.28;5112474;28;20096;-59
2022/06/22 03:20:00;;;;;;;27.90;19.33;;;17.50;99.90;;;17.84;75.13;101217.97;5112218;28;20080;-59
2022/06/22 03:22:33;;;;;;;25.75;18.90;;;17.50;99.90;;;17.93;75.07;101247.16;5112530;28;20052;-59
2022/06/22 03:25:09;;;;;;;18.42;15.80;;;17.50;99.90;;;17.85;73.95;101262.53;5094102;28;20051;-59
2022/06/22 03:27:44;;;;;;;22.90;17.70;;;17.50;99.90;;;17.72;73.67;101266.47;5112150;28;20044;-59
2022/06/22 03:30:17;;;;;;;24.50;19.15;;;17.40;99.90;;;17.56;74.13;101249.97;5112080;28;20089;-59
2022/06/22 03:32:52;;;;;;;22.13;18.05;;;17.30;99.90;;;17.64;74.21;101255.09;5112092;28;20067;-59
2022/06/22 03:35:25;;;;;;;20.70;16.65;;;17.20;99.90;;;17.60;74.62;101254.31;5112267;28;20403;-59
2022/06/22 03:38:00;;;;;;;17.80;15.85;;;17.20;99.90;;;17.53;75.26;101257.19;5112502;28;20051;-59
2022/06/22 03:40:34;;;;;;;21.48;16.35;;;17.10;99.90;;;17.60;75.32;101248.06;5112256;28;20362;-59
2022/06/22 03:43:11;;;;;;;23.15;17.63;;;17.10;99.90;;;17.49;75.19;101263.53;5112094;28;20485;-59
2022/06/22 03:45:45;;;;;;;20.33;17.42;;;17.10;99.90;;;17.49;75.29;101263.53;5112091;28;20071;-59
2022/06/22 03:48:28;;;;;;;19.27;17.27;;;17.00;99.90;;;17.38;74.31;101260.25;5112436;28;20473;-59
2022/06/22 03:51:04;;;;;;;17.17;15.38;;;17.00;99.90;;;17.21;74.80;101266.00;5112294;28;20043;-59
2022/06/22 03:53:38;;;;;;;13.60;12.15;;;16.80;99.90;;;17.01;74.57;101257.63;5112239;28;20369;-59
2022/06/22 03:56:10;;;;;;;9.18;8.32;;;16.70;99.90;;;16.81;74.01;101263.44;5112505;28;20487;-58
2022/06/22 03:58:41;;;;;;;10.18;7.30;;;16.40;99.90;;;16.77;74.07;101268.88;5112032;28;20088;-59
2022/06/22 04:01:10;;;;;;;9.35;8.43;;;16.30;99.90;;;16.64;74.55;101270.97;5112320;28;20035;-59
2022/06/22 04:03:41;;;;;;;9.07;8.27;;;16.30;99.90;;;16.66;75.96;101266.47;5112733;28;20097;-59
2022/06/22 04:06:19;;;;;;;11.73;6.38;;;16.20;99.90;;;16.58;76.09;101259.53;5111957;28;20504;-59
2022/06/22 04:08:48;;;;;;;8.52;7.75;;;16.10;99.90;;;16.62;76.23;101264.78;5111916;28;20043;-59
2022/06/22 04:11:24;;;;;;;7.60;6.90;;;16.10;99.90;;;16.57;76.79;101255.97;5111870;28;20048;-59
2022/06/22 04:14:02;;;;;;;7.45;6.85;;;16.10;99.90;;;16.54;77.33;101255.19;5112266;28;20400;-59
2022/06/22 04:16:34;;;;;;;8.50;7.80;;;16.10;99.90;;;16.69;77.60;101258.38;5112651;28;20084;-59
2022/06/22 04:19:09;;;;;;;8.10;7.30;;;16.20;99.90;;;16.76;78.24;101251.97;5111849;28;20054;-59
2022/06/22 04:21:43;;;;;;;8.05;7.30;;;16.30;99.90;;;16.99;78.91;101254.97;5112508;28;20134;-59
2022/06/22 04:24:17;;;;;;;9.88;8.88;;;16.50;99.90;;;17.00;78.61;101264.75;5115783;28;20210;-59
2022/06/22 04:26:50;;;;;;;18.10;13.60;;;16.60;99.90;;;16.91;77.70;101245.41;5116008;28;20101;-59
2022/06/22 04:29:34;;;;;;;15.35;12.52;;;16.60;99.90;;;16.96;77.70;101271.09;5115613;28;20051;-59
2022/06/22 04:32:13;;;;;;;14.57;12.23;;;16.60;99.90;;;17.25;78.19;101265.00;5115596;28;20043;-59
2022/06/22 04:34:47;;;;;;;17.48;14.45;;;16.70;99.90;;;17.32;77.85;101266.63;5115341;28;20374;-59
2022/06/22 04:37:28;;;;;;;20.83;17.23;;;16.80;99.90;;;17.44;77.42;101268.13;5115224;28;20035;-60
2022/06/22 04:40:15;;;;;;;21.80;16.88;;;17.00;99.90;;;17.64;77.36;101258.66;5115653;28;20466;-59
2022/06/22 04:42:44;;;;;;;25.58;18.73;;;17.10;99.90;;;17.76;77.02;101284.22;5115216;28;20504;-59
2022/06/22 04:45:29;;;;;;;22.52;18.33;;;17.30;99.90;;;17.80;77.07;101260.00;5115153;28;20066;-59
2022/06/22 04:48:05;;;;;;;27.02;17.73;;;17.40;99.90;;;17.93;76.98;101277.47;5115175;28;20386;-59
2022/06/22 04:50:37;;;;;;;22.77;17.73;;;17.50;99.90;;;18.07;77.30;101273.53;5115515;28;20040;-59
2022/06/22 04:53:07;;;;;;;24.05;17.60;;;17.60;99.90;;;18.20;77.17;101275.81;5115058;28;20040;-59
2022/06/22 04:55:38;;;;;;;25.08;17.15;;;17.70;99.90;;;18.18;76.91;101279.44;5115290;28;20040;-59
2022/06/22 04:58:24;;;;;;;22.73;17.08;;;17.70;99.90;;;18.32;76.77;101285.28;5114946;28;20066;-59
2022/06/22 05:00:53;;;;;;;23.42;17.75;;;17.90;99.90;;;18.47;76.65;101288.41;5114914;28;20043;-59
2022/06/22 05:03:21;;;;;;;22.02;17.38;;;18.00;99.90;;;18.59;76.23;101290.72;5114786;28;20039;-59
2022/06/22 05:05:52;;;;;;;25.33;17.80;;;18.10;99.90;;;18.70;75.65;101295.75;5115024;28;20044;-59
2022/06/22 05:08:26;;;;;;;21.13;16.33;;;18.20;99.90;;;18.73;75.36;101314.44;5114651;28;20082;-59
2022/06/22 05:11:01;;;;;;;22.65;15.90;;;18.30;99.90;;;18.91;74.90;101297.78;5114992;28;20063;-59
2022/06/22 05:13:33;;;;;;;22.65;17.15;;;18.50;99.90;;;19.01;74.40;101303.72;5114662;28;20077;-59
2022/06/22 05:16:05;;;;;;;20.30;15.05;;;18.50;99.90;;;19.05;74.15;101310.75;5114612;28;20119;-59
2022/06/22 05:18:37;;;;;;;26.23;15.77;;;18.60;99.90;;;19.07;73.75;101298.13;5114819;28;20063;-59
2022/06/22 05:21:19;;;;;;;24.95;16.65;;;18.70;99.90;;;19.22;73.20;101305.72;5114930;28;20083;-60
2022/06/22 05:23:53;;;;;;;;;;;18.80;99.90;;;19.18;72.89;101271.88;5114918;28;20040;-59
2022/06/22 05:26:24;;;;;;;22.85;14.70;;;19.00;99.90;;;19.46;72.56;101311.16;5114580;28;20015;-59
2022/06/22 05:29:00;;;;;;;17.17;12.93;;;19.10;99.90;;;19.56;72.19;101315.31;5114146;28;20548;-59
2022/06/22 05:31:33;;;;;;;21.95;13.93;;;19.20;99.90;;;18.72;71.61;101158.09;5114176;28;20047;-59
2022/06/22 05:34:07;;;;;;;19.00;12.98;;;19.30;99.90;;;19.81;71.11;101318.00;5114094;28;20055;-59
2022/06/22 05:36:41;;;;;;;17.02;11.95;;;19.40;99.90;;;19.86;70.76;101321.38;5114037;28;20408;-59
2022/06/22 05:39:09;;;;;;;18.63;11.63;;;19.50;99.90;;;19.90;70.43;101323.03;5114061;28;20074;-59
2022/06/22 05:41:41;;;;;;;19.63;12.90;;;19.60;99.90;;;20.00;69.69;101328.94;5113841;28;20046;-59
2022/06/22 05:44:14;;;;;;;18.20;12.32;;;19.70;99.90;;;20.13;69.38;101332.97;5113949;28;20043;-59
2022/06/22 05:46:50;;;;;;;17.50;11.77;;;19.70;99.90;;;20.11;68.26;101335.69;5113925;28;20097;-59
2022/06/22 05:49:23;;;;;;;18.00;12.10;;;19.80;99.90;;;20.21;67.97;101339.84;5096316;28;20047;-59
2022/06/22 05:51:59;;;;;;;17.92;11.48;;;19.80;99.90;;;20.25;68.29;101332.53;5114018;28;20461;-59
2022/06/22 05:54:35;;;;;;;15.00;11.38;;;19.90;99.90;;;20.38;67.74;101332.03;5113820;28;20040;-59
2022/06/22 05:57:16;;;;;;;17.25;10.43;;;20.00;99.90;;;20.46;66.97;101334.47;5113582;28;20419;-59
2022/06/22 05:59:53;;;;;;;19.73;10.65;;;20.10;99.90;;;20.45;66.61;101333.56;5113995;28;20039;-59
2022/06/22 06:02:29;;;;;;;12.48;10.35;;;20.10;99.90;;;20.37;66.34;101302.53;5114173;28;20063;-59
2022/06/22 06:05:05;;;;;;;16.10;10.52;;;20.20;99.90;;;20.56;65.96;101331.34;5114160;28;20054;-59
2022/06/22 06:07:41;;;;;;;16.88;10.90;;;20.20;99.90;;;20.63;65.65;101322.09;5095383;28;20051;-59
2022/06/22 06:10:21;;;;;;;13.68;9.48;;;20.30;99.90;;;20.69;66.18;101321.88;5113983;28;20073;-59
2022/06/22 06:12:59;;;;;;;13.18;10.10;;;20.30;99.90;;;20.76;65.67;101316.25;5113374;28;20483;-59
2022/06/22 06:15:31;;;;;;;18.60;12.60;;;20.50;99.90;;;20.39;67.34;101328.44;5113304;28;20089;-59
2022/06/22 06:18:01;;;;;;;20.90;11.38;;;20.20;99.90;;;20.73;67.34;101340.59;5113135;28;20127;-59
2022/06/22 06:20:34;;;;;;;18.20;10.85;;;20.40;99.90;;;20.87;66.50;101335.53;5113364;28;20302;-59
2022/06/22 06:23:12;;;;;;;14.15;10.93;;;20.50;99.90;;;20.96;65.18;101322.63;5113415;28;20349;-59
2022/06/22 06:28:39;;;;;;;18.45;10.75;;;20.80;99.90;;;20.81;64.09;101338.50;5112960;28;20081;-59
2022/06/22 06:31:16;;;;;;;11.57;9.80;;;20.60;99.90;;;21.11;63.76;101340.88;5113329;28;20055;-59
2022/06/22 06:33:44;;;;;;;17.05;9.80;;;20.70;99.90;;;21.26;63.73;101339.34;5112687;28;20426;-59
2022/06/22 06:36:18;;;;;;;15.18;9.32;;;20.90;99.90;;;21.39;63.24;101333.41;5112795;28;20118;-59
2022/06/22 06:38:54;;;;;;;15.27;10.40;;;21.00;99.90;;;21.50;62.78;101336.53;5112703;28;20071;-59
2022/06/22 06:41:32;;;;;;;14.15;9.48;;;21.10;99.90;;;21.69;62.48;101331.25;5112710;28;20123;-59
2022/06/22 06:44:04;;;;;;;17.08;9.00;;;21.30;99.90;;;21.76;61.88;101326.47;5113037;28;20075;-59
2022/06/22 06:46:38;;;;;;;15.38;9.43;;;21.40;99.90;;;21.78;60.72;101320.06;5112716;28;20096;-59
2022/06/22 06:49:25;;;;;;;18.35;9.45;;;21.40;99.90;;;21.94;60.40;101312.22;5112994;28;20054;-59
2022/06/22 06:52:01;;;;;;;13.52;8.35;;;21.60;99.90;;;21.97;59.37;101309.44;5113304;28;20048;-59
2022/06/22 06:54:37;;;;;;;15.60;9.13;;;21.60;99.90;;;22.00;58.78;101311.97;5112749;28;20174;-59
2022/06/22 06:57:11;;;;;;;13.63;8.45;;;21.70;99.90;;;22.09;58.53;101312.44;5112536;28;20039;-59
2022/06/22 06:59:41;;;;;;;10.00;7.55;;;21.70;99.90;;;22.20;58.44;101309.28;5112813;28;20481;-59
2022/06/22 07:02:17;;;;;;;10.27;7.78;;;21.80;99.90;;;22.29;58.17;101308.84;5112630;28;20139;-57
2022/06/22 07:04:47;;;;;;;11.57;7.95;;;21.90;99.90;;;22.40;57.78;101307.41;5112910;28;20054;-57
2022/06/22 07:07:33;;;;;;;9.45;6.70;;;22.10;99.90;;;22.50;56.84;101306.97;5094479;28;20078;-58
2022/06/22 07:10:11;;;;;;;43.28;28.80;;;22.10;99.90;;;22.59;55.32;101306.59;5113402;28;20136;-59
2022/06/22 07:12:45;;;;;;;11.25;7.55;;;22.30;99.90;;;22.49;54.65;101297.13;5112948;28;20043;-59
2022/06/22 07:15:23;;;;;;;12.07;7.95;;;22.20;99.90;;;22.62;54.38;101318.09;5113058;28;20224;-59
2022/06/22 07:17:55;;;;;;;13.20;6.95;;;22.30;99.90;;;22.55;52.97;101321.13;5112533;28;20044;-58
2022/06/22 07:20:29;;;;;;;9.35;6.45;;;22.30;99.90;;;22.70;53.25;101318.63;5112339;28;20060;-59
2022/06/22 07:23:05;;;;;;;10.35;6.70;;;22.30;99.90;;;22.48;51.83;101311.56;5112600;28;20115;-59
2022/06/22 07:25:42;;;;;;;13.73;8.10;;;22.30;99.90;;;22.63;51.94;101319.84;5112397;28;20044;-59
2022/06/22 07:28:18;;;;;;;14.85;6.38;;;22.30;99.90;;;22.78;52.12;101311.06;5094489;28;20048;-59
2022/06/22 07:30:52;;;;;;;10.07;6.70;;;22.40;99.90;;;22.87;50.98;101312.41;5112479;28;20070;-58
2022/06/22 07:33:26;;;;;;;10.13;6.15;;;22.60;99.90;;;22.97;51.16;101320.00;5112425;28;20040;-58
2022/06/22 07:36:01;;;;;;;11.80;6.75;;;22.70;99.90;;;22.82;49.74;101299.13;5112458;28;20086;-59
2022/06/22 07:38:43;;;;;;;8.43;6.13;;;22.70;99.90;;;22.93;50.64;101306.72;5094288;28;20051;-59
2022/06/22 07:41:22;;;;;;;8.93;6.35;;;22.60;99.90;;;23.06;50.76;101307.88;5112237;28;20044;-59
2022/06/22 07:43:58;;;;;;;8.68;7.10;;;22.70;99.90;;;22.90;49.77;101301.50;5112296;28;20105;-58
2022/06/22 07:46:32;;;;;;;10.68;6.78;;;22.70;99.90;;;23.03;51.60;101299.94;5112528;28;20044;-59
2022/06/22 07:49:07;;;;;;;9.13;6.70;;;22.60;99.90;;;23.13;51.37;101302.09;5112182;28;20075;-59
2022/06/22 07:51:40;;;;;;;8.73;5.90;;;22.80;99.90;;;23.25;51.30;101303.31;5112155;28;20070;-59
2022/06/22 07:54:15;;;;;;;10.85;6.68;;;22.90;99.90;;;23.36;50.85;101298.31;5112150;28;20058;-59
2022/06/22 07:56:58;;;;;;;9.85;6.88;;;23.10;99.90;;;23.45;50.61;101297.84;5112519;28;20130;-59
2022/06/22 07:59:33;;;;;;;9.57;6.50;;;23.10;99.90;;;23.61;50.53;101303.34;5116188;28;20120;-59
2022/06/22 08:02:14;;;;;;;9.25;6.68;;;23.30;99.90;;;23.67;50.48;101301.19;5116022;28;20358;-59
2022/06/22 08:04:50;;;;;;;9.90;7.25;;;23.40;99.90;;;23.47;48.86;101295.94;5097659;28;20101;-59
2022/06/22 08:07:24;;;;;;;7.13;5.60;;;23.40;99.90;;;23.80;49.99;101302.31;5115866;28;20062;-59
2022/06/22 08:10:03;;;;;;;14.35;7.72;;;23.50;99.90;;;23.83;49.20;101312.94;5115763;28;20381;-59
2022/06/22 08:12:38;;;;;;;7.85;6.35;;;23.60;99.90;;;24.00;49.60;101312.94;5115747;28;20043;-59
2022/06/22 08:15:10;;;;;;;11.02;7.28;;;23.70;99.90;;;24.05;48.34;101310.91;5097616;28;20457;-59
2022/06/22 08:17:43;;;;;;;11.70;7.28;;;23.80;99.90;;;24.18;49.05;101309.28;5115910;28;20043;-59
2022/06/22 08:20:19;;;;;;;8.00;6.47;;;23.90;99.90;;;24.23;48.87;101289.25;5115566;28;20052;-59
2022/06/22 08:22:49;;;;;;;12.77;6.57;;;24.10;99.90;;;24.52;48.08;101312.88;5115589;28;20036;-59
2022/06/22 08:25:32;;;;;;;11.82;7.13;;;24.20;99.90;;;24.56;46.88;101319.88;5116216;28;20100;-58
2022/06/22 08:28:04;;;;;;;11.57;6.70;;;24.30;99.90;;;24.44;46.53;101309.72;5115595;28;20138;-58
2022/06/22 08:30:33;;;;;;;10.18;6.05;;;24.30;99.90;;;24.33;46.03;101322.97;5115652;28;20511;-62
2022/06/22 08:33:07;;;;;;;7.50;5.50;;;24.10;99.90;;;24.49;45.29;101316.63;5115587;28;20050;-59
2022/06/22 08:35:39;;;;;;;10.40;5.70;;;24.20;99.90;;;23.96;43.14;101322.16;5115228;28;20104;-59
2022/06/22 08:38:14;;;;;;;10.68;6.05;;;24.00;99.90;;;23.85;45.61;101289.41;5115318;28;20495;-59
2022/06/22 08:40:49;;;;;;;9.48;6.25;;;23.80;99.90;;;23.92;45.05;101317.88;5115267;28;20097;-58
2022/06/22 08:43:27;;;;;;;14.15;10.45;;;23.70;99.90;;;24.10;44.45;101318.75;5115173;28;20047;-60
2022/06/22 08:46:55;;;;;;;10.90;6.75;;;23.80;99.90;;;23.93;44.07;101303.41;5115435;28;20044;-61
2022/06/22 08:49:56;;;;;;;10.73;7.10;;;24.00;99.90;;;23.58;47.11;101322.38;5083837;28;20450;-59
2022/06/22 08:52:30;;;;;;;;;;;23.30;99.90;;;23.99;46.70;101318.41;5097403;28;20465;-58
2022/06/22 08:55:39;;;;;;;8.93;6.00;;;23.70;99.90;;;24.11;46.46;101326.81;5115293;28;19920;-58
2022/06/22 08:58:29;;;;;;;8.00;5.68;;;23.80;99.90;;;24.34;46.57;101330.09;5115239;28;20130;-58
2022/06/22 09:01:07;;;;;;;8.35;6.20;;;24.00;99.90;;;24.57;44.90;101321.59;5114958;28;20043;-64
2022/06/22 09:04:16;;;;;;;7.57;5.63;;;24.30;99.90;;;24.76;44.51;101323.25;5115103;28;20047;-58
2022/06/22 09:07:11;;;;;;;7.53;5.25;;;24.50;99.90;;;25.00;43.74;101326.41;5115085;28;20165;-61
2022/06/22 09:10:12;;;;;;;8.57;4.55;;;24.70;99.90;;;25.09;40.98;101325.88;5114299;28;20098;-57
2022/06/22 09:13:00;;;;;;;9.07;5.10;;;24.90;99.90;;;25.14;41.45;101317.50;5115046;28;20071;-57
2022/06/22 09:15:49;;;;;;;7.97;4.53;;;25.00;99.90;;;25.41;42.06;101326.78;5115225;28;20043;-58
2022/06/22 09:18:52;;;;;;;7.53;5.07;;;25.10;99.90;;;25.53;41.40;101318.78;5096303;28;20130;-58
2022/06/22 09:21:36;;;;;;;11.45;7.38;;;25.30;99.90;;;25.21;41.33;101298.09;5114738;28;20052;-57
2022/06/22 09:24:20;;;;;;;10.95;6.18;;;25.30;99.90;;;25.55;43.37;101337.69;5114324;28;20040;-58
2022/06/22 09:27:01;;;;;;;11.80;7.72;;;25.30;99.90;;;25.69;43.78;101318.75;5114491;28;20051;-58
2022/06/22 09:29:54;;;;;;;12.75;7.35;;;25.40;99.90;;;25.75;42.56;101313.84;5114208;28;20043;-58
2022/06/22 09:33:10;;;;;;;10.70;6.80;;;25.50;99.90;;;25.90;43.19;101318.34;5114068;28;20040;-58
2022/06/22 09:36:19;;;;;;;9.90;5.70;;;25.60;99.90;;;25.87;41.85;101315.81;5096749;28;20122;-58
2022/06/22 09:39:32;;;;;;;11.23;6.13;;;25.70;99.90;;;25.83;40.65;101322.38;5114247;28;20105;-57
2022/06/22 09:42:16;;;;;;;6.78;5.05;;;25.50;99.90;;;26.01;40.26;101328.53;5113856;28;20122;-58
2022/06/22 09:45:17;;;;;;;6.50;5.13;;;25.70;99.90;;;26.08;39.92;101321.78;5114495;28;20092;-58
2022/06/22 09:48:10;;;;;;;8.80;5.53;;;25.80;99.90;;;26.15;40.79;101334.00;5114153;28;20446;-58
2022/06/22 09:51:08;;;;;;;9.20;5.20;;;25.90;99.90;;;26.32;40.63;101333.84;5095635;28;20496;-58
2022/06/22 09:57:17;;;;;;;8.02;4.95;;;26.20;99.90;;;26.04;38.79;101324.75;5112933;28;20069;-58
2022/06/22 10:00:06;;;;;;;7.53;4.82;;;25.80;99.90;;;26.33;40.37;101322.03;5113444;28;20444;-58
2022/06/22 10:03:43;;;;;;;14.13;7.28;;;26.00;99.90;;;26.20;39.21;101320.16;5114135;28;20345;-59
2022/06/22 10:06:48;;;;;;;10.05;7.03;;;26.10;99.90;;;26.32;40.72;101333.84;5051402;28;20053;-58
2022/06/22 10:09:40;;;;;;;9.75;7.00;;;26.00;99.90;;;26.54;41.57;101323.38;5113574;28;20113;-60
2022/06/22 10:12:35;;;;;;;10.93;7.22;;;26.20;99.90;;;26.47;39.69;101332.00;5113685;28;20048;-58
2022/06/22 10:15:35;;;;;;;10.57;7.28;;;26.20;99.90;;;26.15;41.43;101325.88;5113595;28;20075;-58
2022/06/22 10:18:25;;;;;;;9.10;6.45;;;26.00;99.90;;;26.25;40.26;101329.75;5113680;28;20074;-59
2022/06/22 10:21:02;;;;;;;;;;;25.90;99.90;;;26.33;39.81;101324.75;5113013;28;20059;-62
2022/06/22 10:24:01;;;;;;;7.55;5.95;;;26.10;99.90;;;26.41;40.77;101322.41;5113790;28;19920;-59
2022/06/22 10:26:47;;;;;;;9.98;7.18;;;26.10;99.90;;;26.33;38.64;101307.56;5107930;28;20063;-65
2022/06/22 10:29:49;;;;;;;9.93;6.25;;;26.20;99.90;;;26.46;37.90;101319.44;5113256;28;20496;-59
2022/06/22 10:32:46;;;;;;;12.60;8.13;;;26.20;99.90;;;26.18;39.47;101320.28;5113177;28;20093;-60
2022/06/22 10:35:39;;;;;;;10.35;6.78;;;26.00;99.90;;;26.38;40.39;101306.34;5113328;28;20051;-59
2022/06/22 10:38:34;;;;;;;8.35;6.50;;;26.00;99.90;;;26.57;39.22;101306.03;5113243;28;20067;-59
2022/06/22 10:47:55;;;;;;;10.38;6.30;;;26.60;99.90;;;27.10;38.45;101310.75;5113231;28;20366;-60
2022/06/22 10:50:38;;;;;;;11.32;5.70;;;26.80;99.90;;;27.34;38.34;101309.16;5072135;28;20044;-60
2022/06/22 10:54:02;;;;;;;7.82;5.35;;;27.10;99.90;;;27.48;38.16;101309.97;5094848;28;20047;-60
2022/06/22 10:57:07;;;;;;;9.85;6.18;;;27.20;99.90;;;27.38;37.56;101314.28;5113572;28;20130;-59
2022/06/22 11:00:11;;;;;;;9.45;6.25;;;27.20;99.90;;;27.27;37.71;101314.09;5068748;28;20062;-59
2022/06/22 11:03:33;;;;;;;11.95;7.47;;;27.00;99.90;;;27.24;37.49;101303.41;5110357;28;20130;-59
2022/06/22 11:06:40;;;;;;;10.13;6.97;;;27.00;99.90;;;27.18;35.81;101302.94;5113072;28;20047;-59
2022/06/22 11:09:39;;;;;;;9.68;6.35;;;27.00;99.90;;;27.07;37.66;101300.06;5094437;28;20079;-59
2022/06/22 11:12:34;;;;;;;8.35;5.60;;;26.80;99.90;;;27.25;38.06;101298.88;5112622;28;20043;-59
2022/06/22 11:15:43;;;;;;;15.85;11.43;;;27.00;99.90;;;26.91;36.73;101293.91;5112434;28;20089;-59
2022/06/22 11:18:46;;;;;;;18.92;12.15;;;26.80;99.90;;;26.30;35.55;101289.66;5112662;28;20122;-62